Time;durP1;ratioP1;P1;durP2;ratioP2;P2;SDS_P1;SDS_P2;PMS_P1;PMS_P2;Temp;Humidity;BMP_temperature;BMP_pressure;BME280_temperature;BME280_humidity;BME280_pressure;Samples;Min_cycle;Max_cycle;Signal;HPM_P1;HPM_P2
2022/12/28 00:02:11;;;;;;;8.07;4.97;;;;;;;;;;4930765;29;20134;-79
2022/12/28 00:04:38;;;;;;;7.32;4.70;;;;;;;;;;4919297;29;20070;-79
2022/12/28 00:07:04;;;;;;;7.25;4.50;;;;;;;;;;4920125;29;20052;-79
2022/12/28 00:09:31;;;;;;;8.15;4.10;;;;;;;;;;4919515;29;20078;-79
2022/12/28 00:11:58;;;;;;;7.22;4.40;;;;;;;;;;4925430;29;20052;-79
2022/12/28 00:14:25;;;;;;;8.27;3.75;;;;;;;;;;4935524;29;20134;-79
2022/12/28 00:16:51;;;;;;;6.25;3.80;;;;;;;;;;4935378;29;20074;-80
2022/12/28 00:19:18;;;;;;;8.40;3.95;;;;;;;;;;4931148;29;20047;-80
2022/12/28 00:21:45;;;;;;;8.98;3.92;;;;;;;;;;4919626;29;20447;-79
2022/12/28 00:24:23;;;;;;;7.25;4.90;;;;;;;;;;4919919;29;20464;-79
2022/12/28 00:26:50;;;;;;;7.40;4.07;;;;;;;;;;4919932;29;20115;-78
2022/12/28 00:29:17;;;;;;;5.07;3.67;;;;;;;;;;4922756;29;20054;-80
2022/12/28 00:31:44;;;;;;;6.28;3.83;;;;;;;;;;4939850;29;20051;-80
2022/12/28 00:34:12;;;;;;;8.25;4.07;;;;;;;;;;4937758;29;20460;-80
2022/12/28 00:36:38;;;;;;;5.88;3.50;;;;;;;;;;4936489;29;20098;-80
2022/12/28 00:39:25;;;;;;;6.50;3.60;;;;;;;;;;4935996;29;20082;-80
2022/12/28 00:41:52;;;;;;;6.95;3.45;;;;;;;;;;4943415;29;20142;-80
2022/12/28 00:44:19;;;;;;;6.22;3.70;;;;;;;;;;4935539;29;20051;-80
2022/12/28 00:46:45;;;;;;;6.10;2.95;;;;;;;;;;4936409;29;20066;-80
2022/12/28 00:49:12;;;;;;;7.82;3.70;;;;;;;;;;4949940;29;20066;-80
2022/12/28 00:51:39;;;;;;;4.47;3.08;;;;;;;;;;4919962;29;20056;-80
2022/12/28 00:54:06;;;;;;;5.10;3.17;;;;;;;;;;4919390;29;20052;-80
2022/12/28 00:56:32;;;;;;;5.72;4.00;;;;;;;;;;4920733;29;20055;-80
2022/12/28 00:58:59;;;;;;;6.07;3.38;;;;;;;;;;4924602;29;20706;-79
2022/12/28 01:01:26;;;;;;;5.22;3.58;;;;;;;;;;4923326;29;20060;-80
2022/12/28 01:03:57;;;;;;;6.45;3.58;;;;;;;;;;4926165;29;20138;-80
2022/12/28 01:06:24;;;;;;;3.78;2.83;;;;;;;;;;4942354;29;20056;-80
2022/12/28 01:08:51;;;;;;;6.93;3.63;;;;;;;;;;4927726;29;20064;-81
2022/12/28 01:11:20;;;;;;;5.68;3.05;;;;;;;;;;4909647;29;20067;-80
2022/12/28 01:13:48;;;;;;;6.63;3.10;;;;;;;;;;4921462;29;20067;-80
2022/12/28 01:16:17;;;;;;;6.25;3.35;;;;;;;;;;4921676;29;20055;-81
2022/12/28 01:18:45;;;;;;;5.95;2.92;;;;;;;;;;4928963;29;20060;-81
2022/12/28 01:21:14;;;;;;;6.05;2.83;;;;;;;;;;4927365;28;20051;-81
2022/12/28 01:23:41;;;;;;;4.75;2.88;;;;;;;;;;4934570;29;20062;-80
2022/12/28 01:26:08;;;;;;;8.65;3.03;;;;;;;;;;4919051;29;20057;-81
2022/12/28 01:28:35;;;;;;;3.97;2.90;;;;;;;;;;4935791;29;20059;-81
2022/12/28 01:31:10;;;;;;;5.70;3.00;;;;;;;;;;4935953;29;20245;-81
2022/12/28 01:33:37;;;;;;;5.57;3.30;;;;;;;;;;4921345;29;20055;-80
2022/12/28 01:36:07;;;;;;;5.75;2.42;;;;;;;;;;4921711;29;20103;-81
2022/12/28 01:38:37;;;;;;;4.88;2.60;;;;;;;;;;4923112;29;20572;-81
2022/12/28 01:41:12;;;;;;;5.07;2.65;;;;;;;;;;4924353;29;20055;-81
2022/12/28 01:43:40;;;;;;;4.25;2.58;;;;;;;;;;4939633;29;20047;-82
2022/12/28 01:46:12;;;;;;;6.18;2.78;;;;;;;;;;4939276;29;20063;-80
2022/12/28 01:48:48;;;;;;;5.97;2.40;;;;;;;;;;4938183;29;20052;-80
2022/12/28 01:51:16;;;;;;;3.25;2.40;;;;;;;;;;4937192;29;20055;-80
2022/12/28 01:53:42;;;;;;;4.35;2.88;;;;;;;;;;4932047;29;20074;-80
2022/12/28 01:56:09;;;;;;;7.32;2.80;;;;;;;;;;4947006;29;20056;-79
2022/12/28 01:58:36;;;;;;;4.55;3.00;;;;;;;;;;4928021;29;20048;-79
2022/12/28 02:01:02;;;;;;;3.17;2.83;;;;;;;;;;4909020;29;20496;-79
2022/12/28 02:03:30;;;;;;;5.68;2.97;;;;;;;;;;4923218;29;20170;-79
2022/12/28 02:05:58;;;;;;;6.45;3.45;;;;;;;;;;4923318;29;20071;-79
2022/12/28 02:08:51;;;;;;;4.85;3.17;;;;;;;;;;4920709;29;20071;-80
2022/12/28 02:11:18;;;;;;;3.65;3.30;;;;;;;;;;4919969;29;20500;-79
2022/12/28 02:13:49;;;;;;;6.90;3.53;;;;;;;;;;4934367;29;20048;-79
2022/12/28 02:16:15;;;;;;;4.85;3.20;;;;;;;;;;4935066;29;20060;-79
2022/12/28 02:18:43;;;;;;;4.90;3.28;;;;;;;;;;4933397;29;20055;-79
2022/12/28 02:21:37;;;;;;;5.78;3.22;;;;;;;;;;4908269;29;20114;-79
2022/12/28 02:24:19;;;;;;;5.78;3.53;;;;;;;;;;4916583;29;20056;-79
2022/12/28 02:27:02;;;;;;;6.88;3.22;;;;;;;;;;4917230;29;20056;-78
2022/12/28 02:29:34;;;;;;;5.25;2.90;;;;;;;;;;4901039;29;20059;-78
2022/12/28 02:32:23;;;;;;;4.57;2.85;;;;;;;;;;4933291;29;20058;-78
2022/12/28 02:34:56;;;;;;;4.80;2.97;;;;;;;;;;4932630;29;20142;-78
2022/12/28 02:37:26;;;;;;;;;;;;;;;;;;4930904;29;20526;-78
2022/12/28 02:40:00;;;;;;;5.88;3.20;;;;;;;;;;4915028;29;19926;-79
2022/12/28 02:42:26;;;;;;;4.50;3.28;;;;;;;;;;4917261;29;20502;-79
2022/12/28 02:50:33;;;;;;;5.50;3.33;;;;;;;;;;4915669;29;20066;-80
2022/12/28 02:53:19;;;;;;;5.88;3.08;;;;;;;;;;4907299;29;20070;-80
2022/12/28 02:56:22;;;;;;;6.07;2.83;;;;;;;;;;4944959;29;20043;-80
2022/12/28 02:59:14;;;;;;;4.53;2.77;;;;;;;;;;4917618;29;20069;-80
2022/12/28 03:01:41;;;;;;;4.22;2.90;;;;;;;;;;4917951;29;20074;-80
2022/12/28 03:04:16;;;;;;;7.43;2.70;;;;;;;;;;4934728;29;20142;-80
2022/12/28 03:10:05;;;;;;;5.25;3.20;;;;;;;;;;4936608;29;20055;-80
2022/12/28 03:12:35;;;;;;;4.50;2.85;;;;;;;;;;4921496;29;20055;-80
2022/12/28 03:15:28;;;;;;;3.88;2.60;;;;;;;;;;4926300;29;20063;-79
2022/12/28 03:32:01;;;;;;;5.05;2.63;;;;;;;;;;4927525;29;20139;-79
2022/12/28 03:34:28;;;;;;;5.07;2.67;;;;;;;;;;4931453;29;20138;-82
2022/12/28 03:37:08;;;;;;;5.80;2.90;;;;;;;;;;4919539;29;20095;-83
2022/12/28 03:40:00;;;;;;;4.75;3.10;;;;;;;;;;4936139;29;20128;-82
2022/12/28 03:45:25;;;;;;;4.43;2.42;;;;;;;;;;4952722;29;20128;-81
2022/12/28 03:48:12;;;;;;;5.93;2.78;;;;;;;;;;4938480;29;20052;-81
2022/12/28 03:50:40;;;;;;;7.65;2.92;;;;;;;;;;4937027;29;20063;-82
2022/12/28 03:53:08;;;;;;;3.50;2.55;;;;;;;;;;4935926;29;20055;-82
2022/12/28 03:55:36;;;;;;;3.53;2.65;;;;;;;;;;4920117;29;20432;-82
2022/12/28 03:58:04;;;;;;;3.45;2.40;;;;;;;;;;4916229;29;20058;-82
2022/12/28 04:00:31;;;;;;;3.30;2.38;;;;;;;;;;4932294;29;20055;-82
2022/12/28 04:02:58;;;;;;;4.47;2.30;;;;;;;;;;4928939;29;20119;-79
2022/12/28 04:05:25;;;;;;;5.07;2.67;;;;;;;;;;4908771;29;20079;-79
2022/12/28 04:07:52;;;;;;;3.92;2.03;;;;;;;;;;4924402;29;20132;-79
2022/12/28 04:10:19;;;;;;;4.68;2.85;;;;;;;;;;4924363;29;20481;-79
2022/12/28 04:12:45;;;;;;;3.95;2.20;;;;;;;;;;4924032;29;20062;-79
2022/12/28 04:15:12;;;;;;;2.80;2.13;;;;;;;;;;4909205;29;20082;-79
2022/12/28 04:17:39;;;;;;;4.03;2.25;;;;;;;;;;4923120;29;20449;-78
2022/12/28 04:20:06;;;;;;;3.72;1.80;;;;;;;;;;4925134;29;20063;-78
2022/12/28 04:22:32;;;;;;;2.80;1.65;;;;;;;;;;4925469;29;20066;-79
2022/12/28 04:24:59;;;;;;;3.00;1.50;;;;;;;;;;4941539;29;20066;-79
2022/12/28 04:27:26;;;;;;;3.80;1.70;;;;;;;;;;4938842;29;20052;-79
2022/12/28 04:29:53;;;;;;;2.28;1.50;;;;;;;;;;4925497;29;20056;-79
2022/12/28 04:32:19;;;;;;;4.85;1.58;;;;;;;;;;4948912;29;20066;-79
2022/12/28 04:34:46;;;;;;;2.47;0.98;;;;;;;;;;4924367;29;20120;-79
2022/12/28 04:37:14;;;;;;;2.05;1.33;;;;;;;;;;4923044;29;20051;-79
2022/12/28 04:39:41;;;;;;;4.97;1.48;;;;;;;;;;4925205;29;20063;-80
2022/12/28 04:42:24;;;;;;;2.40;1.40;;;;;;;;;;4929085;29;20134;-79
2022/12/28 04:44:50;;;;;;;3.42;1.38;;;;;;;;;;4925628;29;22263;-80
2022/12/28 04:47:17;;;;;;;2.40;1.30;;;;;;;;;;4928496;29;20056;-80
2022/12/28 04:49:44;;;;;;;2.90;1.27;;;;;;;;;;4912449;29;20051;-80
2022/12/28 04:52:11;;;;;;;3.22;1.52;;;;;;;;;;4942465;29;20060;-80
2022/12/28 04:54:37;;;;;;;1.77;1.20;;;;;;;;;;4924542;29;20091;-79
2022/12/28 04:57:05;;;;;;;3.08;1.20;;;;;;;;;;4905794;29;20087;-79
2022/12/28 04:59:32;;;;;;;2.33;1.20;;;;;;;;;;4922074;29;20102;-78
2022/12/28 05:01:59;;;;;;;2.45;1.25;;;;;;;;;;4906741;29;20055;-79
2022/12/28 05:04:26;;;;;;;3.53;1.33;;;;;;;;;;4892917;29;20051;-79
2022/12/28 05:06:53;;;;;;;3.58;2.28;;;;;;;;;;4923692;29;20047;-79
2022/12/28 05:09:20;;;;;;;4.60;2.80;;;;;;;;;;4922926;29;20074;-79
2022/12/28 05:11:47;;;;;;;3.30;2.17;;;;;;;;;;4923037;29;20106;-79
2022/12/28 05:14:14;;;;;;;2.10;1.30;;;;;;;;;;4922658;29;20060;-78
2022/12/28 05:16:41;;;;;;;2.55;1.48;;;;;;;;;;4907628;29;20122;-78
2022/12/28 05:19:08;;;;;;;2.78;1.50;;;;;;;;;;4927303;29;20063;-80
2022/12/28 05:21:35;;;;;;;3.78;1.63;;;;;;;;;;4941583;29;20054;-80
2022/12/28 05:24:01;;;;;;;4.07;1.35;;;;;;;;;;4917116;29;20070;-80
2022/12/28 05:26:29;;;;;;;2.45;1.50;;;;;;;;;;4929794;29;20058;-79
2022/12/28 05:28:56;;;;;;;5.85;3.45;;;;;;;;;;4927156;29;20071;-80
2022/12/28 05:31:23;;;;;;;11.07;7.18;;;;;;;;;;4926879;29;20491;-80
2022/12/28 05:33:50;;;;;;;9.82;8.93;;;;;;;;;;4906311;29;20078;-83
2022/12/28 05:36:19;;;;;;;9.45;8.65;;;;;;;;;;4905859;29;20106;-81
2022/12/28 05:38:46;;;;;;;4.18;1.90;;;;;;;;;;4934244;29;20052;-81
2022/12/28 05:41:20;;;;;;;1.45;1.33;;;;;;;;;;4907114;29;20055;-81
2022/12/28 05:43:48;;;;;;;2.80;1.90;;;;;;;;;;4959577;28;20054;-81
2022/12/28 05:46:18;;;;;;;2.53;1.48;;;;;;;;;;4914812;29;20162;-81
2022/12/28 05:48:45;;;;;;;2.80;1.40;;;;;;;;;;4926160;29;20052;-81
2022/12/28 05:51:13;;;;;;;3.53;1.30;;;;;;;;;;4926853;29;20146;-80
2022/12/28 05:53:41;;;;;;;3.13;1.70;;;;;;;;;;4912553;29;20059;-81
2022/12/28 05:56:16;;;;;;;3.72;1.67;;;;;;;;;;4927915;29;20069;-81
2022/12/28 05:58:43;;;;;;;5.03;2.40;;;;;;;;;;4930557;29;20162;-82
2022/12/28 06:01:12;;;;;;;3.15;1.48;;;;;;;;;;4943675;29;20062;-82
2022/12/28 06:03:40;;;;;;;2.67;1.50;;;;;;;;;;4943693;29;20118;-82
2022/12/28 06:06:15;;;;;;;4.78;1.50;;;;;;;;;;4954331;29;20049;-82
2022/12/28 06:08:43;;;;;;;3.95;1.90;;;;;;;;;;4921188;29;20051;-81
2022/12/28 06:11:11;;;;;;;2.08;1.30;;;;;;;;;;4937920;29;20054;-82
2022/12/28 06:13:38;;;;;;;2.60;1.42;;;;;;;;;;4922192;29;20150;-81
2022/12/28 06:16:05;;;;;;;2.25;1.80;;;;;;;;;;4927291;29;20087;-80
2022/12/28 06:18:33;;;;;;;3.80;1.40;;;;;;;;;;4948340;29;20087;-81
2022/12/28 06:21:05;;;;;;;4.50;1.30;;;;;;;;;;4944823;29;20062;-81
2022/12/28 06:23:35;;;;;;;4.57;1.25;;;;;;;;;;4938168;29;20060;-81
2022/12/28 06:26:03;;;;;;;1.60;1.20;;;;;;;;;;4905058;29;20504;-81
2022/12/28 06:28:36;;;;;;;3.00;1.13;;;;;;;;;;4922059;29;20092;-80
2022/12/28 06:31:20;;;;;;;1.48;0.90;;;;;;;;;;4936700;29;20059;-80
2022/12/28 06:33:52;;;;;;;2.85;1.10;;;;;;;;;;4941042;29;20059;-80
2022/12/28 06:36:24;;;;;;;3.40;0.93;;;;;;;;;;4953241;29;20043;-85
2022/12/28 06:38:52;;;;;;;4.70;1.05;;;;;;;;;;4906592;29;20497;-84
2022/12/28 06:41:20;;;;;;;3.67;1.17;;;;;;;;;;4925856;29;20051;-82
2022/12/28 06:43:48;;;;;;;1.92;1.13;;;;;;;;;;4942780;28;20047;-81
2022/12/28 06:46:15;;;;;;;1.95;1.13;;;;;;;;;;4943943;28;20066;-81
2022/12/28 06:48:43;;;;;;;1.35;0.90;;;;;;;;;;4931871;29;20114;-81
2022/12/28 06:51:24;;;;;;;4.03;1.00;;;;;;;;;;4931618;29;20056;-80
2022/12/28 06:53:51;;;;;;;2.20;0.90;;;;;;;;;;4922744;29;20047;-80
2022/12/28 06:56:19;;;;;;;4.95;1.65;;;;;;;;;;4942166;28;20123;-82
2022/12/28 06:58:47;;;;;;;2.10;1.00;;;;;;;;;;4943646;28;20051;-80
2022/12/28 07:01:18;;;;;;;2.03;1.05;;;;;;;;;;4943259;28;20028;-80
2022/12/28 07:03:46;;;;;;;4.47;1.67;;;;;;;;;;4942622;28;20031;-81
2022/12/28 07:06:15;;;;;;;2.60;0.93;;;;;;;;;;4926818;29;20054;-82
2022/12/28 07:08:42;;;;;;;2.13;1.13;;;;;;;;;;4922161;29;20112;-82
2022/12/28 07:11:11;;;;;;;4.65;1.38;;;;;;;;;;4923548;29;20086;-81
2022/12/28 07:13:38;;;;;;;4.28;1.30;;;;;;;;;;4933533;29;20083;-85
2022/12/28 07:16:16;;;;;;;2.28;1.15;;;;;;;;;;4906601;29;20083;-79
2022/12/28 07:18:43;;;;;;;1.00;0.90;;;;;;;;;;4931033;29;20069;-81
2022/12/28 07:21:15;;;;;;;3.70;1.13;;;;;;;;;;4951079;28;20050;-82
2022/12/28 07:23:45;;;;;;;2.05;0.90;;;;;;;;;;4909504;29;20062;-80
2022/12/28 07:26:14;;;;;;;4.28;1.10;;;;;;;;;;4919027;29;20056;-81
2022/12/28 07:28:42;;;;;;;2.25;1.05;;;;;;;;;;4922447;29;20052;-80
2022/12/28 07:31:30;;;;;;;2.55;1.23;;;;;;;;;;4905075;29;20090;-80
2022/12/28 07:33:58;;;;;;;2.20;0.98;;;;;;;;;;4921148;29;20064;-78
2022/12/28 07:36:27;;;;;;;1.02;0.93;;;;;;;;;;4916000;29;20441;-76
2022/12/28 07:38:54;;;;;;;1.70;0.93;;;;;;;;;;4919608;29;20052;-79
2022/12/28 07:41:23;;;;;;;4.22;1.70;;;;;;;;;;4922951;29;20059;-80
2022/12/28 07:43:50;;;;;;;5.00;2.70;;;;;;;;;;4908330;29;20052;-80
2022/12/28 07:46:20;;;;;;;3.90;1.92;;;;;;;;;;4924486;29;20142;-80
2022/12/28 07:48:47;;;;;;;2.17;1.05;;;;;;;;;;4923870;29;20079;-80
2022/12/28 07:51:14;;;;;;;3.17;1.50;;;;;;;;;;4922515;29;20056;-80
2022/12/28 07:53:41;;;;;;;3.08;1.20;;;;;;;;;;4923754;29;20127;-80
2022/12/28 07:56:09;;;;;;;3.70;1.50;;;;;;;;;;4923416;29;20056;-80
2022/12/28 07:58:36;;;;;;;4.30;1.70;;;;;;;;;;4924871;29;20062;-81
2022/12/28 08:01:11;;;;;;;2.85;1.50;;;;;;;;;;4921033;29;20056;-80
2022/12/28 08:03:39;;;;;;;4.22;1.80;;;;;;;;;;4917691;29;20059;-81
2022/12/28 08:06:08;;;;;;;2.65;1.35;;;;;;;;;;4929920;29;20103;-80
2022/12/28 08:08:40;;;;;;;1.73;1.35;;;;;;;;;;4945031;29;20048;-81
2022/12/28 08:11:09;;;;;;;1.83;1.45;;;;;;;;;;4927026;29;20059;-80
2022/12/28 08:13:37;;;;;;;2.78;1.90;;;;;;;;;;4924806;29;20051;-80
2022/12/28 08:16:05;;;;;;;5.28;1.83;;;;;;;;;;4910252;29;20056;-79
2022/12/28 08:18:32;;;;;;;3.78;2.00;;;;;;;;;;4908665;29;20398;-81
2022/12/28 08:21:03;;;;;;;5.10;2.17;;;;;;;;;;4934249;29;20091;-77
2022/12/28 08:23:30;;;;;;;4.97;2.45;;;;;;;;;;4939813;29;20074;-78
2022/12/28 08:26:06;;;;;;;5.90;2.35;;;;;;;;;;4924067;29;20066;-78
2022/12/28 08:28:33;;;;;;;4.40;2.38;;;;;;;;;;4940475;29;20051;-78
2022/12/28 08:31:07;;;;;;;4.28;2.00;;;;;;;;;;4924744;29;20066;-78
2022/12/28 08:33:34;;;;;;;2.17;1.77;;;;;;;;;;4938431;29;20139;-78
2022/12/28 08:36:02;;;;;;;4.35;2.10;;;;;;;;;;4942331;29;20066;-78
2022/12/28 08:38:29;;;;;;;2.55;1.80;;;;;;;;;;4942569;29;20063;-78
2022/12/28 08:40:57;;;;;;;2.17;1.75;;;;;;;;;;4959938;29;20077;-78
2022/12/28 08:43:25;;;;;;;2.88;1.70;;;;;;;;;;4916312;29;20066;-76
2022/12/28 08:46:00;;;;;;;3.55;1.90;;;;;;;;;;4904989;29;20119;-78
2022/12/28 08:48:27;;;;;;;3.35;1.80;;;;;;;;;;4924416;29;20060;-76
2022/12/28 08:50:59;;;;;;;4.20;2.00;;;;;;;;;;4903330;29;20052;-78
2022/12/28 08:53:25;;;;;;;3.25;1.90;;;;;;;;;;4912176;29;20052;-76
2022/12/28 08:55:52;;;;;;;3.38;2.05;;;;;;;;;;4920048;29;20059;-80
2022/12/28 08:58:19;;;;;;;4.85;1.77;;;;;;;;;;4923084;29;20054;-79
2022/12/28 09:00:45;;;;;;;3.05;2.13;;;;;;;;;;4938712;29;20066;-80
2022/12/28 09:03:12;;;;;;;6.22;2.22;;;;;;;;;;4923176;29;20073;-80
2022/12/28 09:05:39;;;;;;;4.45;2.28;;;;;;;;;;4924448;29;20047;-80
2022/12/28 09:08:06;;;;;;;4.03;2.30;;;;;;;;;;4925239;29;20059;-80
2022/12/28 09:10:32;;;;;;;3.83;1.92;;;;;;;;;;4922137;29;20068;-80
2022/12/28 09:12:59;;;;;;;4.72;1.70;;;;;;;;;;4890034;29;20063;-79
2022/12/28 09:15:26;;;;;;;4.18;1.73;;;;;;;;;;4921468;29;20056;-78
2022/12/28 09:17:53;;;;;;;2.67;1.70;;;;;;;;;;4928947;29;20063;-79
2022/12/28 09:20:19;;;;;;;4.97;2.05;;;;;;;;;;4915199;29;20493;-79
2022/12/28 09:22:46;;;;;;;2.80;1.70;;;;;;;;;;4919376;29;20055;-79
2022/12/28 09:25:13;;;;;;;3.70;1.70;;;;;;;;;;4915578;29;20066;-78
2022/12/28 09:27:40;;;;;;;4.18;2.15;;;;;;;;;;4903683;29;20143;-80
2022/12/28 09:30:07;;;;;;;3.85;1.85;;;;;;;;;;4910084;29;20524;-79
2022/12/28 09:32:34;;;;;;;2.85;1.52;;;;;;;;;;4928442;29;20055;-75
2022/12/28 09:35:01;;;;;;;3.38;1.48;;;;;;;;;;4926217;29;20074;-75
2022/12/28 09:37:27;;;;;;;5.55;1.63;;;;;;;;;;4933763;29;20082;-78
2022/12/28 09:39:54;;;;;;;3.53;1.80;;;;;;;;;;4931902;29;20090;-78
2022/12/28 09:42:27;;;;;;;1.73;1.42;;;;;;;;;;4903400;29;20048;-78
2022/12/28 09:45:09;;;;;;;2.55;1.63;;;;;;;;;;4910653;29;20436;-78
2022/12/28 09:47:46;;;;;;;2.42;1.48;;;;;;;;;;4930989;29;20801;-78
2022/12/28 09:50:15;;;;;;;2.15;1.40;;;;;;;;;;4920514;29;20126;-78
2022/12/28 09:53:02;;;;;;;2.17;1.38;;;;;;;;;;4917701;29;20457;-81
2022/12/28 09:55:28;;;;;;;2.33;1.10;;;;;;;;;;4903396;29;20059;-78
2022/12/28 09:57:56;;;;;;;3.03;2.08;;;;;;;;;;4917037;29;20066;-78
2022/12/28 10:00:45;;;;;;;2.80;1.00;;;;;;;;;;4917149;29;20048;-78
2022/12/28 10:03:19;;;;;;;2.17;1.13;;;;;;;;;;4916224;29;20074;-78
2022/12/28 10:05:46;;;;;;;3.33;1.50;;;;;;;;;;4917702;29;20146;-78
2022/12/28 10:08:15;;;;;;;3.42;1.55;;;;;;;;;;4932748;29;20424;-78
2022/12/28 10:10:41;;;;;;;4.18;1.67;;;;;;;;;;4917389;29;20048;-79
2022/12/28 10:13:26;;;;;;;4.50;2.35;;;;;;;;;;4917962;29;20093;-78
2022/12/28 10:16:18;;;;;;;3.53;1.67;;;;;;;;;;4922950;29;20055;-79
2022/12/28 10:18:45;;;;;;;3.45;2.05;;;;;;;;;;4919943;29;20059;-78
2022/12/28 10:21:14;;;;;;;2.85;2.22;;;;;;;;;;4920782;29;20091;-78
2022/12/28 10:23:41;;;;;;;2.63;1.67;;;;;;;;;;4920031;29;20146;-78
2022/12/28 10:26:27;;;;;;;2.58;1.90;;;;;;;;;;4921976;29;20066;-78
2022/12/28 10:28:57;;;;;;;2.53;1.58;;;;;;;;;;4904014;29;20052;-78
2022/12/28 10:31:30;;;;;;;2.65;2.00;;;;;;;;;;4903850;29;20051;-78
2022/12/28 10:33:57;;;;;;;1.70;1.40;;;;;;;;;;4935473;29;20055;-78
2022/12/28 10:36:24;;;;;;;3.88;1.60;;;;;;;;;;4936527;29;20055;-78
2022/12/28 10:38:57;;;;;;;2.97;1.42;;;;;;;;;;4935081;29;20103;-79
2022/12/28 10:41:39;;;;;;;3.85;1.60;;;;;;;;;;4919789;29;20348;-79
2022/12/28 10:44:20;;;;;;;1.63;1.48;;;;;;;;;;4920070;29;20138;-79
2022/12/28 10:47:13;;;;;;;3.78;2.10;;;;;;;;;;4921759;29;20068;-79
2022/12/28 10:49:47;;;;;;;4.47;1.83;;;;;;;;;;4917973;29;20055;-79
2022/12/28 10:52:34;;;;;;;3.75;1.70;;;;;;;;;;4936858;29;20056;-79
2022/12/28 10:55:01;;;;;;;2.70;1.60;;;;;;;;;;4919968;29;20139;-79
2022/12/28 10:57:33;;;;;;;;;;;;;;;;;;4906591;29;20070;-79
2022/12/28 11:00:20;;;;;;;2.58;1.73;;;;;;;;;;4924706;29;19923;-78
2022/12/28 11:02:47;;;;;;;3.67;2.15;;;;;;;;;;4932564;29;20508;-79
2022/12/28 11:05:20;;;;;;;2.92;1.58;;;;;;;;;;4935003;29;20063;-78
2022/12/28 11:07:47;;;;;;;2.47;1.35;;;;;;;;;;4933768;29;20063;-79
2022/12/28 11:10:23;;;;;;;2.33;1.77;;;;;;;;;;4936361;29;20062;-79
2022/12/28 11:12:52;;;;;;;6.03;1.60;;;;;;;;;;4935235;29;20741;-77
2022/12/28 11:15:24;;;;;;;2.42;1.50;;;;;;;;;;4900860;29;20055;-77
2022/12/28 11:17:58;;;;;;;3.67;1.80;;;;;;;;;;4916193;29;20062;-78
2022/12/28 11:20:31;;;;;;;3.83;1.30;;;;;;;;;;4902320;29;20501;-78
2022/12/28 11:22:58;;;;;;;1.90;1.60;;;;;;;;;;4900577;29;20070;-78
2022/12/28 11:25:30;;;;;;;2.70;1.70;;;;;;;;;;4915452;29;20322;-78
2022/12/28 11:27:57;;;;;;;4.45;1.75;;;;;;;;;;4918575;29;20428;-78
2022/12/28 11:30:24;;;;;;;2.33;1.50;;;;;;;;;;4916048;29;20047;-78
2022/12/28 11:32:52;;;;;;;3.63;1.58;;;;;;;;;;4909097;29;20059;-78
2022/12/28 11:35:22;;;;;;;2.20;1.30;;;;;;;;;;4916391;29;20051;-78
2022/12/28 11:37:55;;;;;;;4.63;1.48;;;;;;;;;;4914966;29;20064;-78
2022/12/28 11:40:41;;;;;;;3.65;1.38;;;;;;;;;;4917415;29;20555;-78
2022/12/28 11:43:26;;;;;;;4.55;1.73;;;;;;;;;;4928627;29;20065;-78
2022/12/28 11:45:58;;;;;;;3.38;1.00;;;;;;;;;;4918740;29;20428;-78
2022/12/28 11:48:40;;;;;;;2.90;1.50;;;;;;;;;;4915240;29;20056;-78
2022/12/28 11:51:34;;;;;;;2.00;1.35;;;;;;;;;;4918494;29;20065;-77
2022/12/28 11:54:20;;;;;;;2.08;1.42;;;;;;;;;;4915864;29;20108;-78
2022/12/28 11:56:50;;;;;;;3.10;1.65;;;;;;;;;;4918546;29;20365;-77
2022/12/28 11:59:24;;;;;;;1.95;1.20;;;;;;;;;;4928093;29;20083;-77
2022/12/28 12:01:53;;;;;;;2.58;0.93;;;;;;;;;;4918972;29;20167;-77
2022/12/28 12:04:36;;;;;;;4.32;1.33;;;;;;;;;;4928433;29;20058;-78
2022/12/28 12:07:03;;;;;;;;;;;;;;;;;;4925777;29;20135;-78
2022/12/28 12:09:31;;;;;;;2.78;1.42;;;;;;;;;;4918100;29;19937;-78
2022/12/28 12:12:22;;;;;;;2.20;1.25;;;;;;;;;;4926524;29;20516;-79
2022/12/28 12:14:56;;;;;;;2.40;1.10;;;;;;;;;;4905977;29;20102;-78
2022/12/28 12:17:29;;;;;;;5.13;1.20;;;;;;;;;;4918724;29;20056;-79
2022/12/28 12:20:07;;;;;;;1.60;1.00;;;;;;;;;;4935101;29;20051;-78
2022/12/28 12:22:39;;;;;;;3.90;2.05;;;;;;;;;;4886918;29;20051;-78
2022/12/28 12:25:23;;;;;;;2.83;1.63;;;;;;;;;;4917401;29;20465;-77
2022/12/28 12:27:57;;;;;;;3.42;2.05;;;;;;;;;;4889047;29;20055;-78
2022/12/28 12:30:25;;;;;;;2.85;1.50;;;;;;;;;;4910622;29;20070;-78
2022/12/28 12:32:56;;;;;;;2.28;1.80;;;;;;;;;;4917819;29;20068;-78
2022/12/28 12:35:56;;;;;;;3.42;2.22;;;;;;;;;;4905888;29;20114;-78
2022/12/28 12:38:42;;;;;;;3.10;1.30;;;;;;;;;;4914386;29;20481;-78
2022/12/28 12:41:48;;;;;;;4.13;1.25;;;;;;;;;;4917944;29;20052;-78
2022/12/28 12:44:24;;;;;;;2.55;1.13;;;;;;;;;;4894930;29;20059;-78
2022/12/28 12:47:13;;;;;;;2.38;1.10;;;;;;;;;;4916426;29;20044;-78
2022/12/28 12:49:56;;;;;;;2.20;1.50;;;;;;;;;;4915869;29;20055;-78
2022/12/28 12:52:41;;;;;;;2.13;1.27;;;;;;;;;;4921826;29;20056;-78
2022/12/28 12:55:30;;;;;;;2.63;1.10;;;;;;;;;;4914427;29;20051;-78
2022/12/28 12:58:25;;;;;;;6.07;1.40;;;;;;;;;;4917724;29;20055;-78
2022/12/28 13:00:52;;;;;;;3.28;1.17;;;;;;;;;;4927865;29;20421;-78
2022/12/28 13:03:46;;;;;;;2.53;1.23;;;;;;;;;;4917056;29;20079;-78
2022/12/28 13:06:18;;;;;;;3.13;0.90;;;;;;;;;;4905909;29;20108;-78
2022/12/28 13:08:58;;;;;;;2.35;1.08;;;;;;;;;;4896261;29;20626;-78
2022/12/28 13:11:31;;;;;;;2.22;0.80;;;;;;;;;;4891892;29;20052;-78
2022/12/28 13:13:58;;;;;;;2.10;1.10;;;;;;;;;;4886309;29;20536;-77
2022/12/28 13:16:27;;;;;;;2.30;1.05;;;;;;;;;;4895877;29;20066;-78
2022/12/28 13:18:57;;;;;;;2.75;0.80;;;;;;;;;;4916822;29;20511;-78
2022/12/28 13:21:26;;;;;;;0.90;0.60;;;;;;;;;;4900678;29;20104;-78
2022/12/28 13:23:55;;;;;;;1.55;0.70;;;;;;;;;;4917524;29;20132;-78
2022/12/28 13:26:27;;;;;;;2.17;0.77;;;;;;;;;;4917009;29;20063;-78
2022/12/28 13:28:59;;;;;;;1.00;0.80;;;;;;;;;;4898284;29;20055;-78
2022/12/28 13:31:53;;;;;;;1.27;0.60;;;;;;;;;;4901443;29;20086;-79
2022/12/28 13:34:28;;;;;;;0.77;0.60;;;;;;;;;;4909514;29;20055;-78
2022/12/28 13:37:00;;;;;;;1.25;0.55;;;;;;;;;;4895855;29;20062;-76
2022/12/28 13:39:30;;;;;;;1.50;0.52;;;;;;;;;;4886735;29;20058;-77
2022/12/28 13:42:13;;;;;;;1.15;1.08;;;;;;;;;;4917342;29;20059;-79
2022/12/28 13:45:08;;;;;;;3.00;0.90;;;;;;;;;;4910817;29;20106;-79
2022/12/28 13:47:37;;;;;;;2.75;1.05;;;;;;;;;;4917309;29;20417;-77
2022/12/28 13:50:16;;;;;;;3.15;0.80;;;;;;;;;;4916743;29;20163;-77
2022/12/28 13:52:51;;;;;;;3.35;1.30;;;;;;;;;;4902005;29;20079;-79
2022/12/28 13:55:28;;;;;;;1.80;1.00;;;;;;;;;;4901023;29;20431;-77
2022/12/28 13:57:56;;;;;;;1.70;1.08;;;;;;;;;;4885652;29;20059;-78
2022/12/28 14:00:25;;;;;;;2.25;1.00;;;;;;;;;;4916491;29;20047;-78
2022/12/28 14:02:53;;;;;;;1.98;1.38;;;;;;;;;;4882780;29;20143;-78
2022/12/28 14:05:24;;;;;;;2.58;1.40;;;;;;;;;;4900408;29;20492;-78
2022/12/28 14:07:52;;;;;;;4.55;1.75;;;;;;;;;;4900056;29;20119;-78
2022/12/28 14:10:19;;;;;;;4.07;1.80;;;;;;;;;;4900368;29;20055;-77
2022/12/28 14:12:46;;;;;;;3.75;1.90;;;;;;;;;;4899914;29;20057;-78
2022/12/28 14:15:14;;;;;;;5.88;2.10;;;;;;;;;;4900453;29;20075;-78
2022/12/28 14:17:41;;;;;;;5.35;2.70;;;;;;;;;;4890402;29;20469;-77
2022/12/28 14:20:08;;;;;;;3.97;1.80;;;;;;;;;;4923336;29;20106;-78
2022/12/28 14:22:37;;;;;;;1.85;1.40;;;;;;;;;;4887666;29;20070;-78
2022/12/28 14:25:08;;;;;;;4.00;1.90;;;;;;;;;;4888229;29;20123;-78
2022/12/28 14:27:52;;;;;;;3.58;1.55;;;;;;;;;;4936319;29;20138;-78
2022/12/28 14:31:04;;;;;;;3.38;1.40;;;;;;;;;;4921848;29;20044;-77
2022/12/28 14:33:37;;;;;;;3.15;1.58;;;;;;;;;;4929643;29;20133;-78
2022/12/28 14:36:06;;;;;;;2.97;1.77;;;;;;;;;;4903743;29;20059;-78
2022/12/28 14:38:34;;;;;;;1.40;1.10;;;;;;;;;;4896154;29;20060;-79
2022/12/28 14:41:02;;;;;;;5.10;1.98;;;;;;;;;;4903889;29;20389;-78
2022/12/28 14:43:30;;;;;;;3.40;1.40;;;;;;;;;;4902975;29;20098;-80
2022/12/28 14:45:57;;;;;;;3.20;1.60;;;;;;;;;;4910370;29;20055;-78
2022/12/28 14:48:39;;;;;;;1.45;0.98;;;;;;;;;;4900166;29;20102;-80
2022/12/28 14:51:30;;;;;;;1.98;1.10;;;;;;;;;;4919510;29;20590;-79
2022/12/28 14:54:23;;;;;;;2.55;1.05;;;;;;;;;;4902170;29;20504;-78
2022/12/28 14:56:58;;;;;;;3.03;1.40;;;;;;;;;;4917198;29;20078;-78
2022/12/28 14:59:28;;;;;;;1.33;1.20;;;;;;;;;;4922108;29;20059;-79
2022/12/28 15:01:55;;;;;;;1.73;1.35;;;;;;;;;;4890139;29;20539;-77
2022/12/28 15:04:34;;;;;;;1.20;0.90;;;;;;;;;;4908546;29;20090;-78
2022/12/28 15:07:04;;;;;;;2.22;1.40;;;;;;;;;;4911489;29;20051;-78
2022/12/28 15:09:32;;;;;;;1.75;1.15;;;;;;;;;;4897551;29;20055;-79
2022/12/28 15:12:19;;;;;;;2.83;1.25;;;;;;;;;;4894644;29;20114;-73
2022/12/28 15:14:47;;;;;;;3.75;1.30;;;;;;;;;;4893493;29;20067;-76
2022/12/28 15:17:17;;;;;;;5.20;1.50;;;;;;;;;;4931028;29;20524;-75
2022/12/28 15:19:45;;;;;;;3.20;1.38;;;;;;;;;;4915449;29;20122;-75
2022/12/28 15:22:12;;;;;;;2.83;1.75;;;;;;;;;;4898019;29;20115;-74
2022/12/28 15:24:43;;;;;;;2.33;1.25;;;;;;;;;;4908202;29;20079;-78
2022/12/28 15:27:11;;;;;;;5.80;1.92;;;;;;;;;;4904253;29;20094;-78
2022/12/28 15:29:38;;;;;;;2.35;1.42;;;;;;;;;;4902649;29;20048;-76
2022/12/28 15:32:26;;;;;;;2.15;1.30;;;;;;;;;;4902391;29;20138;-77
2022/12/28 15:34:54;;;;;;;2.40;1.23;;;;;;;;;;4920118;29;20052;-79
2022/12/28 15:37:21;;;;;;;2.28;1.25;;;;;;;;;;4900950;29;20051;-78